Сокол

Карта отелей и гостиниц, располагающихся рядом с аэропортом Сокол :

Сокол
Магадан
Магаданская область 59° 54' 39.5388" N, 150° 43' 13.6812" E
Код аэродрома ИКАО: 
UHMM
Код аэродрома RU: 
УХММ
Координаты: 
N59.91098° E150.72047°
Превышение над уровнем моря : 
175
Основная полоса: 
10/28
Курс магнитный: 
103,8/283,8
Длина основной ВПП: 
3460
Ширина основной ВПП: 
60
Покрытие основной ВПП: 
Твёрдое (бетон)
Тип: 
Аэродром
Освещение ВПП: 
Постоянное
Класс аэродрома: 
Международный
Статус: 
Действующий
Принадлежность: 
ГА
Сайт: 
http://airport-magadan.ru/
E-mail аэродрома: 
airport-magadan@mail.ru
Страна: 
Россия
Регион: 
Магаданская область
Город: 
Магадан
Дополнительная информация: 
Оператор: ОАО «Аэропорт Магадан». Управление: Северо-Восточное МТУ ВТ ФАВТ (Росавиации). Военный индекс: ЬХММ/XHMM.
Схемы аэропортов: 
Погода: 

Авиационная погода в аэропорту Сокол

Регион: 
Погода METAR: 
UHMM 110330Z 24003MPS 210V290 9999 NSC 21/10 Q1009 R10/70D NOSIG RMK QFE742 R28/25005MPS
Время наблюдения: 
2020-08-11T03:30:00Z
Температура C: 
21.0
Точка росы: 
10.0
Направление ветра: 
240
Скорость ветра: 
6
Метеорологическая видимость: 
6.21
Условия полета: 
VFR
Аэропорт подробнее: 

Найти трансфер

С помощью этой формы Вы можете найти трансфер из аэропорта Сокол в город, аэропорт или вокзал:

Карта места

Javascript is required to view this map.

Погода в аэропортах:

Авиационная погода в Витебске

Регион: 
Погода METAR: 
UMII 101505Z 05005G08MPS 4600 -TSRA SCT006 BKN030CB 23/16 Q1015 R23/D TEMPO 2000 SHRA BKN005 RMK QBB200
Время наблюдения: 
2020-08-10T15:05:00Z
Температура C: 
23.0
Точка росы: 
16.0
Направление ветра: 
50
Скорость ветра: 
10
Метеорологическая видимость: 
2.86
Явления погоды: 
-TSRA
Условия полета: 
IFR

Авиационная погода в аэропорту Семей

Регион: 
Погода METAR: 
UASS 110325Z 32002MPS 270V030 9999 -SHRA BKN043CB 24/14 Q1000 R08/0///60 NOSIG RMK QFE730/0973
Время наблюдения: 
2020-08-11T03:25:00Z
Температура C: 
24.0
Точка росы: 
14.0
Направление ветра: 
320
Скорость ветра: 
4
Метеорологическая видимость: 
6.21
Явления погоды: 
-SHRA
Условия полета: 
VFR
Аэропорт подробнее: 

Авиационная погода в Челябинске

Регион: 
Погода METAR: 
USCC 110330Z 33006MPS 1900 DZ BR OVC004 14/14 Q0996 R27/290050 NOSIG RMK QFE727
Время наблюдения: 
2020-08-11T03:30:00Z
Температура C: 
14.0
Точка росы: 
14.0
Направление ветра: 
330
Скорость ветра: 
12
Метеорологическая видимость: 
1.18
Явления погоды: 
DZ BR
Условия полета: 
LIFR
Аэропорт подробнее: 

Авиационная погода в Вадсё

Регион: 
Погода METAR: 
ENVD 110350Z 29005KT 9999 VCSH FEW015 SCT026 BKN035 09/08 Q1026
Время наблюдения: 
2020-08-11T03:50:00Z
Температура C: 
9.0
Точка росы: 
8.0
Направление ветра: 
290
Скорость ветра: 
5
Метеорологическая видимость: 
6.21
Явления погоды: 
VCSH
Условия полета: 
VFR